createdAt,value
2023-02-02T00:01:50.455Z,8.10
2023-02-02T00:04:22.337Z,8.00
2023-02-02T00:06:49.304Z,8.00
2023-02-02T00:09:17.706Z,8.10
2023-02-02T00:11:45.876Z,8.00
2023-02-02T00:14:12.826Z,8.10
2023-02-02T00:16:44.680Z,8.10
2023-02-02T00:19:14.473Z,8.10
2023-02-02T00:21:41.482Z,8.10
2023-02-02T00:24:10.342Z,8.00
2023-02-02T00:26:38.404Z,8.00
2023-02-02T00:29:06.210Z,8.00
2023-02-02T00:31:34.033Z,7.90
2023-02-02T00:34:00.697Z,7.90
2023-02-02T00:36:27.349Z,7.90
2023-02-02T00:38:53.985Z,7.80
2023-02-02T00:41:20.623Z,7.80
2023-02-02T00:44:07.175Z,7.80
2023-02-02T00:46:33.774Z,7.80
2023-02-02T00:49:00.411Z,7.80
2023-02-02T00:51:26.997Z,7.80
2023-02-02T00:53:53.576Z,7.80
2023-02-02T00:56:20.293Z,7.80
2023-02-02T00:58:46.931Z,7.70
2023-02-02T01:01:18.133Z,7.70
2023-02-02T01:03:45.190Z,7.70
2023-02-02T01:06:11.828Z,7.70
2023-02-02T01:08:38.706Z,7.70
2023-02-02T01:11:05.933Z,7.70
2023-02-02T01:13:33.078Z,7.70
2023-02-02T01:16:01.492Z,7.70
2023-02-02T01:18:28.859Z,7.70
2023-02-02T01:21:04.442Z,7.60
2023-02-02T01:23:31.941Z,7.60
2023-02-02T01:26:00.671Z,7.50
2023-02-02T01:28:28.227Z,7.60
2023-02-02T01:30:56.257Z,7.60
2023-02-02T01:33:23.748Z,7.50
2023-02-02T01:35:53.017Z,7.60
2023-02-02T01:38:20.252Z,7.60
2023-02-02T01:40:52.842Z,7.50
2023-02-02T01:43:28.680Z,7.60
2023-02-02T01:45:57.696Z,7.60
2023-02-02T01:48:33.665Z,7.60
2023-02-02T01:51:04.168Z,7.60
2023-02-02T01:53:31.482Z,7.60
2023-02-02T01:55:58.883Z,7.60
2023-02-02T01:58:31.388Z,7.60
2023-02-02T02:00:58.420Z,7.50
2023-02-02T02:03:28.248Z,7.50
2023-02-02T02:06:10.897Z,7.50
2023-02-02T02:08:52.186Z,7.50
2023-02-02T02:11:20.836Z,7.50
2023-02-02T02:14:06.581Z,7.50
2023-02-02T02:16:52.605Z,7.50
2023-02-02T02:20:07.584Z,7.50
2023-02-02T02:23:19.183Z,7.60
2023-02-02T02:26:30.376Z,7.50
2023-02-02T02:29:16.391Z,7.60
2023-02-02T02:32:01.459Z,7.60
2023-02-02T02:34:43.093Z,7.60
2023-02-02T02:37:31.166Z,7.60
2023-02-02T02:40:15.861Z,7.70
2023-02-02T02:42:49.098Z,7.60
2023-02-02T02:45:17.824Z,7.60
2023-02-02T02:47:45.133Z,7.60
2023-02-02T02:50:12.047Z,7.60
2023-02-02T02:52:40.378Z,7.60
2023-02-02T02:55:10.028Z,7.60
2023-02-02T02:58:04.852Z,7.60
2023-02-02T03:00:48.550Z,7.70
2023-02-02T03:03:33.546Z,7.60
2023-02-02T03:06:09.032Z,7.70
2023-02-02T03:08:52.886Z,7.70
2023-02-02T03:11:20.593Z,7.70
2023-02-02T03:13:47.970Z,7.60
2023-02-02T03:16:16.349Z,7.60
2023-02-02T03:18:43.217Z,7.70
2023-02-02T03:21:09.822Z,7.70
2023-02-02T03:23:36.467Z,7.70
2023-02-02T03:26:03.222Z,7.70
2023-02-02T03:28:30.172Z,7.70
2023-02-02T03:31:00.096Z,7.70
2023-02-02T03:33:27.211Z,7.70
2023-02-02T03:35:54.103Z,7.70
2023-02-02T03:38:20.689Z,7.70
2023-02-02T03:40:47.299Z,7.70
2023-02-02T03:43:13.943Z,7.70
2023-02-02T03:45:40.798Z,7.70
2023-02-02T03:48:07.526Z,7.70
2023-02-02T03:50:34.192Z,7.70
2023-02-02T03:53:00.799Z,7.70
2023-02-02T03:55:27.762Z,7.70
2023-02-02T03:57:54.359Z,7.80
2023-02-02T04:00:21.739Z,7.80
2023-02-02T04:02:48.421Z,7.70
2023-02-02T04:05:15.123Z,7.70
2023-02-02T04:07:41.780Z,7.70
2023-02-02T04:10:09.104Z,7.70
2023-02-02T04:12:35.729Z,7.80
2023-02-02T04:15:02.361Z,7.70
2023-02-02T04:17:28.951Z,7.80
2023-02-02T04:19:58.133Z,7.80
2023-02-02T04:22:25.948Z,7.80
2023-02-02T04:24:52.774Z,7.80
2023-02-02T04:27:19.708Z,7.80
2023-02-02T04:29:46.370Z,7.80
2023-02-02T04:32:16.239Z,7.80
2023-02-02T04:34:43.497Z,7.80
2023-02-02T04:37:10.749Z,7.80
2023-02-02T04:39:37.470Z,7.80
2023-02-02T04:42:04.376Z,7.80
2023-02-02T04:44:31.032Z,7.80
2023-02-02T04:46:57.607Z,7.80
2023-02-02T04:49:24.263Z,7.90
2023-02-02T04:51:50.868Z,7.80
2023-02-02T04:54:17.593Z,7.90
2023-02-02T04:56:44.194Z,7.90
2023-02-02T04:59:10.781Z,7.90
2023-02-02T05:01:37.430Z,8.00
2023-02-02T05:04:04.110Z,7.90
2023-02-02T05:06:30.764Z,8.00
2023-02-02T05:08:57.362Z,8.00
2023-02-02T05:11:24.136Z,8.00
2023-02-02T05:13:53.248Z,8.00
2023-02-02T05:16:21.731Z,8.00
2023-02-02T05:18:56.829Z,8.00
2023-02-02T05:21:23.682Z,8.00
2023-02-02T05:23:50.353Z,8.00
2023-02-02T05:26:21.318Z,8.10
2023-02-02T05:28:48.537Z,8.10
2023-02-02T05:31:15.416Z,8.10
2023-02-02T05:33:42.183Z,8.20
2023-02-02T05:36:08.886Z,8.10
2023-02-02T05:38:35.503Z,8.20
2023-02-02T05:41:02.659Z,8.20
2023-02-02T05:43:31.283Z,8.10
2023-02-02T05:45:58.300Z,8.10
2023-02-02T05:48:25.196Z,8.10
2023-02-02T05:51:10.119Z,8.10
2023-02-02T05:53:36.717Z,8.20
2023-02-02T05:56:03.593Z,8.10
2023-02-02T05:58:30.237Z,8.10
2023-02-02T06:00:57.039Z,8.10
2023-02-02T06:03:23.969Z,8.00
2023-02-02T06:05:50.634Z,8.00
2023-02-02T06:08:17.319Z,8.00
2023-02-02T06:10:44.686Z,8.00
2023-02-02T06:13:11.779Z,8.00
2023-02-02T06:15:38.571Z,8.00
2023-02-02T06:18:06.849Z,8.00
2023-02-02T06:20:33.741Z,8.00
2023-02-02T06:23:00.364Z,8.00
2023-02-02T06:25:27.656Z,8.00
2023-02-02T06:28:03.564Z,8.00
2023-02-02T06:30:30.206Z,8.00
2023-02-02T06:32:59.292Z,8.00
2023-02-02T06:35:26.270Z,8.00
2023-02-02T06:37:53.182Z,8.00
2023-02-02T06:40:19.833Z,8.00
2023-02-02T06:42:46.426Z,8.00
2023-02-02T06:45:13.065Z,8.00
2023-02-02T06:47:39.665Z,8.00
2023-02-02T06:50:06.584Z,8.00
2023-02-02T06:52:33.184Z,8.10
2023-02-02T06:55:01.103Z,8.10
2023-02-02T06:57:27.712Z,8.00
2023-02-02T06:59:54.387Z,8.00
2023-02-02T07:02:23.226Z,8.10
2023-02-02T07:04:49.892Z,8.10
2023-02-02T07:07:16.495Z,8.00
2023-02-02T07:09:43.281Z,8.10
2023-02-02T07:12:09.882Z,8.10
2023-02-02T07:14:36.479Z,8.10
2023-02-02T07:17:03.123Z,8.10
2023-02-02T07:19:29.772Z,8.10
2023-02-02T07:21:56.392Z,8.20
2023-02-02T07:24:23.081Z,8.10
2023-02-02T07:26:49.729Z,8.10
2023-02-02T07:29:16.365Z,8.10
2023-02-02T07:31:43.122Z,8.10
2023-02-02T07:34:09.989Z,8.20
2023-02-02T07:36:37.358Z,8.20
2023-02-02T07:39:04.777Z,8.20
2023-02-02T07:41:33.590Z,8.30
2023-02-02T07:44:00.276Z,8.20
2023-02-02T07:46:27.142Z,8.30
2023-02-02T07:48:57.138Z,8.30
2023-02-02T07:51:25.121Z,8.40
2023-02-02T07:53:55.727Z,8.40
2023-02-02T07:56:25.266Z,8.40
2023-02-02T07:58:53.241Z,8.50
2023-02-02T08:01:22.744Z,8.50
2023-02-02T08:03:50.621Z,8.50
2023-02-02T08:06:29.733Z,8.50
2023-02-02T08:08:56.501Z,8.60
2023-02-02T08:11:24.714Z,8.70
2023-02-02T08:13:53.473Z,8.70
2023-02-02T08:16:21.181Z,8.80
2023-02-02T08:18:48.597Z,8.80
2023-02-02T08:21:16.140Z,8.80
2023-02-02T08:23:43.108Z,8.80
2023-02-02T08:26:18.438Z,8.80
2023-02-02T08:28:47.430Z,8.80
2023-02-02T08:31:23.537Z,8.80
2023-02-02T08:33:51.478Z,8.90
2023-02-02T08:36:20.040Z,8.90
2023-02-02T08:38:47.060Z,8.90
2023-02-02T08:41:16.996Z,9.00
2023-02-02T08:43:44.119Z,9.00
2023-02-02T08:46:14.813Z,9.00
2023-02-02T08:48:41.863Z,9.20
2023-02-02T08:51:11.237Z,9.20
2023-02-02T08:53:38.379Z,9.30
2023-02-02T08:56:13.519Z,9.40
2023-02-02T08:58:40.653Z,9.40
2023-02-02T09:01:11.632Z,9.50
2023-02-02T09:03:40.233Z,9.50
2023-02-02T09:06:09.320Z,9.50
2023-02-02T09:08:36.127Z,9.50
2023-02-02T09:11:12.055Z,9.60
2023-02-02T09:13:40.228Z,9.60
2023-02-02T09:16:09.668Z,9.70
2023-02-02T09:18:36.629Z,9.70
2023-02-02T09:21:06.355Z,9.70
2023-02-02T09:23:35.038Z,9.70
2023-02-02T09:26:12.291Z,9.80
2023-02-02T09:28:40.969Z,9.80
2023-02-02T09:31:09.933Z,9.80
2023-02-02T09:33:37.249Z,9.80
2023-02-02T09:36:12.751Z,9.80
2023-02-02T09:38:40.739Z,9.70
2023-02-02T09:41:42.279Z,9.80
2023-02-02T09:44:20.787Z,9.80
2023-02-02T09:46:56.439Z,9.80
2023-02-02T09:49:47.931Z,9.80
2023-02-02T09:52:24.356Z,9.90
2023-02-02T09:54:54.812Z,9.80
2023-02-02T09:57:25.414Z,9.80
2023-02-02T09:59:54.431Z,9.90
2023-02-02T10:02:28.791Z,9.80
2023-02-02T10:05:03.665Z,9.80
2023-02-02T10:07:36.104Z,9.80
2023-02-02T10:10:06.147Z,9.90
2023-02-02T10:12:57.059Z,9.90
2023-02-02T10:15:39.000Z,10.00
2023-02-02T10:18:27.137Z,10.00
2023-02-02T10:21:03.403Z,10.00
2023-02-02T10:23:37.737Z,10.10
2023-02-02T10:26:34.014Z,10.10
2023-02-02T10:29:22.462Z,10.10
2023-02-02T10:32:00.749Z,10.10
2023-02-02T10:34:31.246Z,10.10
2023-02-02T10:37:23.682Z,10.10
2023-02-02T10:40:20.293Z,10.20
2023-02-02T10:43:23.803Z,10.20
2023-02-02T10:45:51.928Z,10.20
2023-02-02T10:48:34.440Z,10.30
2023-02-02T10:51:06.747Z,10.20
2023-02-02T10:53:33.737Z,10.20
2023-02-02T10:56:06.913Z,10.20
2023-02-02T10:58:46.419Z,10.30
2023-02-02T11:01:17.766Z,10.40
2023-02-02T11:03:44.628Z,10.40
2023-02-02T11:06:31.736Z,10.50
2023-02-02T11:09:00.824Z,10.50
2023-02-02T11:11:33.006Z,10.50
2023-02-02T11:14:15.972Z,10.50
2023-02-02T11:16:45.271Z,10.50
2023-02-02T11:19:17.579Z,10.50
2023-02-02T11:21:50.327Z,10.50
2023-02-02T11:24:29.458Z,10.50
2023-02-02T11:27:04.348Z,10.50
2023-02-02T11:29:40.152Z,10.40
2023-02-02T11:32:20.330Z,10.40
2023-02-02T11:34:47.098Z,10.40
2023-02-02T11:37:21.957Z,10.30
2023-02-02T11:39:48.611Z,10.30
2023-02-02T11:42:19.690Z,10.40
2023-02-02T11:44:57.190Z,10.40
2023-02-02T11:47:33.035Z,10.40
2023-02-02T11:50:02.472Z,10.40
2023-02-02T11:52:33.044Z,10.40
2023-02-02T11:55:02.383Z,10.40
2023-02-02T11:57:30.540Z,10.30
2023-02-02T12:00:12.473Z,10.30
2023-02-02T12:02:46.596Z,10.30
2023-02-02T12:05:23.518Z,10.30
2023-02-02T12:07:50.171Z,10.20
2023-02-02T12:10:27.304Z,10.10
2023-02-02T12:13:07.442Z,10.20
2023-02-02T12:16:09.158Z,10.10
2023-02-02T12:18:41.081Z,10.10
2023-02-02T12:21:20.607Z,10.10
2023-02-02T12:24:17.170Z,10.10
2023-02-02T12:26:56.303Z,10.10
2023-02-02T12:29:52.296Z,10.20
2023-02-02T12:32:41.647Z,10.20
2023-02-02T12:35:33.170Z,10.20
2023-02-02T12:38:25.025Z,10.20
2023-02-02T12:41:22.485Z,10.10
2023-02-02T12:44:07.781Z,10.10
2023-02-02T12:46:55.930Z,10.00
2023-02-02T12:50:04.692Z,10.00
2023-02-02T12:52:51.503Z,10.00
2023-02-02T12:55:34.180Z,9.90
2023-02-02T12:58:31.589Z,9.90
2023-02-02T13:01:10.549Z,9.90
2023-02-02T13:04:02.561Z,9.90
2023-02-02T13:06:52.768Z,9.90
2023-02-02T13:09:35.600Z,9.90
2023-02-02T13:12:08.610Z,9.90
2023-02-02T13:14:49.572Z,9.90
2023-02-02T13:17:36.407Z,9.80
2023-02-02T13:20:07.715Z,9.80
2023-02-02T13:22:46.664Z,9.90
2023-02-02T13:25:28.713Z,9.90
2023-02-02T13:27:58.095Z,9.90
2023-02-02T13:30:28.329Z,9.80
2023-02-02T13:33:02.618Z,9.80
2023-02-02T13:35:42.765Z,9.80
2023-02-02T13:38:23.832Z,9.80
2023-02-02T13:40:55.229Z,9.80
2023-02-02T13:43:33.931Z,9.80
2023-02-02T13:46:23.842Z,9.80
2023-02-02T13:48:57.592Z,9.80
2023-02-02T13:52:04.061Z,9.70
2023-02-02T13:55:04.811Z,9.70
2023-02-02T14:00:40.704Z,9.70
2023-02-02T14:03:40.067Z,9.70
2023-02-02T14:06:17.115Z,9.80
2023-02-02T14:08:57.685Z,9.70
2023-02-02T14:11:31.555Z,9.80
2023-02-02T14:14:28.111Z,9.80
2023-02-02T14:16:56.564Z,9.80
2023-02-02T14:19:29.194Z,9.80
2023-02-02T14:22:12.020Z,9.80
2023-02-02T14:24:45.879Z,9.80
2023-02-02T14:27:15.296Z,9.70
2023-02-02T14:29:46.827Z,9.70
2023-02-02T14:32:29.009Z,9.70
2023-02-02T14:34:58.187Z,9.70
2023-02-02T14:37:25.169Z,9.60
2023-02-02T14:39:51.759Z,9.60
2023-02-02T14:42:45.536Z,9.60
2023-02-02T14:45:12.123Z,9.60
2023-02-02T14:47:48.343Z,9.60
2023-02-02T14:50:37.752Z,9.60
2023-02-02T14:53:08.376Z,9.60
2023-02-02T14:56:02.895Z,9.50
2023-02-02T14:58:37.322Z,9.50
2023-02-02T15:01:09.561Z,9.50
2023-02-02T15:03:48.508Z,9.50
2023-02-02T15:06:29.896Z,9.50
2023-02-02T15:09:27.804Z,9.50
2023-02-02T15:12:03.420Z,9.50
2023-02-02T15:14:38.794Z,9.50
2023-02-02T15:17:26.277Z,9.50
2023-02-02T15:20:21.151Z,9.40
2023-02-02T15:22:47.989Z,9.40
2023-02-02T15:25:42.417Z,9.40
2023-02-02T15:28:21.905Z,9.40
2023-02-02T15:31:01.153Z,9.40
2023-02-02T15:33:36.735Z,9.30
2023-02-02T15:36:12.620Z,9.40
2023-02-02T15:38:41.721Z,9.30
2023-02-02T15:41:29.661Z,9.30
2023-02-02T15:43:56.276Z,9.30
2023-02-02T15:46:27.830Z,9.30
2023-02-02T15:49:33.848Z,9.20
2023-02-02T15:52:11.469Z,9.20
2023-02-02T15:54:38.207Z,9.20
2023-02-02T15:57:27.269Z,9.20
2023-02-02T15:59:54.013Z,9.20
2023-02-02T16:02:34.027Z,9.20
2023-02-02T16:05:00.795Z,9.20
2023-02-02T16:07:32.291Z,9.10
2023-02-02T16:10:07.156Z,9.10
2023-02-02T16:12:35.456Z,9.10
2023-02-02T16:15:02.267Z,9.20
2023-02-02T16:17:35.463Z,9.20
2023-02-02T16:20:08.732Z,9.20
2023-02-02T16:22:37.039Z,9.20
2023-02-02T16:25:16.305Z,9.20
2023-02-02T16:27:47.435Z,9.20
2023-02-02T16:30:32.275Z,9.20
2023-02-02T16:32:58.949Z,9.20
2023-02-02T16:35:36.917Z,9.20
2023-02-02T16:38:23.217Z,9.20
2023-02-02T16:41:00.792Z,9.20
2023-02-02T16:43:29.434Z,9.10
2023-02-02T16:45:57.748Z,9.10
2023-02-02T16:48:33.394Z,9.10
2023-02-02T16:51:15.031Z,9.10
2023-02-02T16:53:44.876Z,9.10
2023-02-02T16:56:29.620Z,9.10
2023-02-02T16:58:59.664Z,9.10
2023-02-02T17:01:42.061Z,9.10
2023-02-02T17:04:25.718Z,9.10
2023-02-02T17:06:53.684Z,9.00
2023-02-02T17:09:37.932Z,9.10
2023-02-02T17:12:32.209Z,9.00
2023-02-02T17:15:05.995Z,9.00
2023-02-02T17:17:32.623Z,9.00
2023-02-02T17:19:59.293Z,9.00
2023-02-02T17:22:27.737Z,9.00
2023-02-02T17:24:54.728Z,9.00
2023-02-02T17:27:26.857Z,9.00
2023-02-02T17:29:54.211Z,8.90
2023-02-02T17:32:20.983Z,8.90
2023-02-02T17:34:47.587Z,8.90
2023-02-02T17:37:14.202Z,8.90
2023-02-02T17:39:40.942Z,8.90
2023-02-02T17:42:24.455Z,8.80
2023-02-02T17:44:51.084Z,8.90
2023-02-02T17:47:17.693Z,8.80
2023-02-02T17:49:44.248Z,8.80
2023-02-02T17:52:12.483Z,8.80
2023-02-02T17:54:39.109Z,8.80
2023-02-02T17:57:05.701Z,8.80
2023-02-02T17:59:32.277Z,8.80
2023-02-02T18:01:59.166Z,8.80
2023-02-02T18:04:26.898Z,8.80
2023-02-02T18:06:53.528Z,8.80
2023-02-02T18:09:20.168Z,8.80
2023-02-02T18:11:49.306Z,8.80
2023-02-02T18:14:15.919Z,8.80
2023-02-02T18:16:42.492Z,8.80
2023-02-02T18:19:10.258Z,8.80
2023-02-02T18:21:37.399Z,8.80
2023-02-02T18:24:04.213Z,8.80
2023-02-02T18:26:32.545Z,8.80
2023-02-02T18:28:59.402Z,8.80
2023-02-02T18:31:27.012Z,8.80
2023-02-02T18:33:54.401Z,8.80
2023-02-02T18:36:23.502Z,8.80
2023-02-02T18:38:51.264Z,8.80
2023-02-02T18:41:21.435Z,8.80
2023-02-02T18:43:48.450Z,8.80
2023-02-02T18:46:17.217Z,8.70
2023-02-02T18:48:44.775Z,8.70
2023-02-02T18:51:17.964Z,8.80
2023-02-02T18:53:46.491Z,8.70
2023-02-02T18:56:14.427Z,8.80
2023-02-02T18:58:41.367Z,8.80
2023-02-02T19:01:16.513Z,8.80
2023-02-02T19:03:47.217Z,8.80
2023-02-02T19:06:32.755Z,8.80
2023-02-02T19:08:59.405Z,8.80
2023-02-02T19:11:33.126Z,8.80
2023-02-02T19:13:59.841Z,8.80
2023-02-02T19:16:28.846Z,8.80
2023-02-02T19:19:05.712Z,8.80
2023-02-02T19:21:32.642Z,8.80
2023-02-02T19:23:59.767Z,9.00
2023-02-02T19:26:27.989Z,9.10
2023-02-02T19:29:01.342Z,9.10
2023-02-02T19:31:28.491Z,9.20
2023-02-02T19:33:55.187Z,9.10
2023-02-02T19:36:27.702Z,9.10
2023-02-02T19:39:12.108Z,9.10
2023-02-02T19:41:40.616Z,9.10
2023-02-02T19:44:22.858Z,9.10
2023-02-02T19:46:52.339Z,9.10
2023-02-02T19:49:32.848Z,9.00
2023-02-02T19:52:01.200Z,9.00
2023-02-02T19:54:32.508Z,9.00
2023-02-02T19:57:26.503Z,8.90
2023-02-02T19:59:53.669Z,8.90
2023-02-02T20:02:42.734Z,8.80
2023-02-02T20:05:23.999Z,8.80
2023-02-02T20:08:18.990Z,8.80
2023-02-02T20:10:46.185Z,8.80
2023-02-02T20:13:23.530Z,8.80
2023-02-02T20:15:52.591Z,8.80
2023-02-02T20:18:45.217Z,8.70
2023-02-02T20:21:41.455Z,8.70
2023-02-02T20:24:32.467Z,8.70
2023-02-02T20:27:05.224Z,8.70
2023-02-02T20:29:41.568Z,8.70
2023-02-02T20:32:36.841Z,8.70
2023-02-02T20:35:21.333Z,8.70
2023-02-02T20:37:48.006Z,8.70
2023-02-02T20:40:25.401Z,8.70
2023-02-02T20:42:52.185Z,8.70
2023-02-02T20:45:24.169Z,8.60
2023-02-02T20:47:50.795Z,8.60
2023-02-02T20:50:20.571Z,8.60
2023-02-02T20:52:47.534Z,8.70
2023-02-02T20:55:14.228Z,8.60
2023-02-02T20:57:40.883Z,8.60
2023-02-02T21:00:10.363Z,8.60
2023-02-02T21:02:37.528Z,8.60
2023-02-02T21:05:04.852Z,8.60
2023-02-02T21:07:31.645Z,8.60
2023-02-02T21:09:58.319Z,8.60
2023-02-02T21:12:25.680Z,8.60
2023-02-02T21:14:53.906Z,8.60
2023-02-02T21:17:20.600Z,8.60
2023-02-02T21:19:47.328Z,8.50
2023-02-02T21:22:14.058Z,8.50
2023-02-02T21:24:40.774Z,8.60
2023-02-02T21:27:07.655Z,8.50
2023-02-02T21:29:34.743Z,8.50
2023-02-02T21:32:02.917Z,8.50
2023-02-02T21:34:30.649Z,8.50
2023-02-02T21:36:58.671Z,8.50
2023-02-02T21:39:25.671Z,8.50
2023-02-02T21:42:00.778Z,8.50
2023-02-02T21:44:27.432Z,8.50
2023-02-02T21:46:54.128Z,8.50
2023-02-02T21:49:35.273Z,8.50
2023-02-02T21:52:12.462Z,8.50
2023-02-02T21:54:40.326Z,8.50
2023-02-02T21:57:36.997Z,8.50
2023-02-02T22:00:22.433Z,8.50
2023-02-02T22:02:51.063Z,8.50
2023-02-02T22:05:24.536Z,8.50
2023-02-02T22:07:53.367Z,8.50
2023-02-02T22:10:38.635Z,8.50
2023-02-02T22:13:26.480Z,8.50
2023-02-02T22:15:53.329Z,8.60
2023-02-02T22:18:23.221Z,8.60
2023-02-02T22:20:51.384Z,8.60
2023-02-02T22:23:20.780Z,8.60
2023-02-02T22:25:49.452Z,8.50
2023-02-02T22:28:29.554Z,8.60
2023-02-02T22:30:56.889Z,8.50
2023-02-02T22:33:26.189Z,8.60
2023-02-02T22:35:54.097Z,8.60
2023-02-02T22:38:22.975Z,8.60
2023-02-02T22:40:51.327Z,8.50
2023-02-02T22:43:19.922Z,8.60
2023-02-02T22:45:47.270Z,8.50
2023-02-02T22:48:15.284Z,8.60
2023-02-02T22:50:42.089Z,8.50
2023-02-02T22:53:09.122Z,8.50
2023-02-02T22:55:35.764Z,8.50
2023-02-02T22:58:02.377Z,8.60
2023-02-02T23:00:31.743Z,8.60
2023-02-02T23:02:58.658Z,8.60
2023-02-02T23:05:26.311Z,8.60
2023-02-02T23:07:53.690Z,8.60
2023-02-02T23:10:24.474Z,8.60
2023-02-02T23:12:53.628Z,8.60
2023-02-02T23:15:20.261Z,8.60
2023-02-02T23:17:47.247Z,8.60
2023-02-02T23:20:15.341Z,8.60
2023-02-02T23:22:42.088Z,8.60
2023-02-02T23:25:10.538Z,8.60
2023-02-02T23:27:37.503Z,8.60
2023-02-02T23:30:05.213Z,8.60
2023-02-02T23:32:31.852Z,8.60
2023-02-02T23:34:58.457Z,8.60
2023-02-02T23:37:25.120Z,8.60
2023-02-02T23:39:51.687Z,8.60
2023-02-02T23:42:18.554Z,8.60
2023-02-02T23:44:45.189Z,8.50
2023-02-02T23:47:12.007Z,8.60
2023-02-02T23:49:39.084Z,8.60
2023-02-02T23:52:06.310Z,8.60
2023-02-02T23:54:33.699Z,8.60
2023-02-02T23:57:01.024Z,8.60
2023-02-02T23:59:27.786Z,8.60
